createdAt,value
2023-03-17T00:00:35.718Z,30.92
2023-03-17T00:03:02.054Z,28.38
2023-03-17T00:05:31.437Z,28.73
2023-03-17T00:07:56.549Z,31.02
2023-03-17T00:10:23.246Z,28.92
2023-03-17T00:12:48.023Z,30.85
2023-03-17T00:15:13.947Z,31.33
2023-03-17T00:17:38.522Z,34.22
2023-03-17T00:20:04.883Z,33.47
2023-03-17T00:22:31.814Z,36.13
2023-03-17T00:24:56.285Z,38.85
2023-03-17T00:27:20.940Z,33.72
2023-03-17T00:29:45.412Z,32.97
2023-03-17T00:32:18.410Z,33.72
2023-03-17T00:34:43.140Z,31.73
2023-03-17T00:37:12.782Z,32.83
2023-03-17T00:39:37.339Z,33.78
2023-03-17T00:42:01.809Z,35.55
2023-03-17T00:44:26.484Z,34.45
2023-03-17T00:46:51.795Z,35.03
2023-03-17T00:51:43.214Z,29.15
2023-03-17T00:54:11.514Z,28.00
2023-03-17T00:56:36.754Z,27.08
2023-03-17T00:59:02.791Z,28.67
2023-03-17T01:01:27.530Z,25.20
2023-03-17T01:03:52.879Z,27.63
2023-03-17T01:06:18.232Z,27.35
2023-03-17T01:08:44.798Z,26.08
2023-03-17T01:11:16.428Z,26.63
2023-03-17T01:13:41.051Z,29.85
2023-03-17T01:16:11.237Z,25.65
2023-03-17T01:18:35.896Z,27.27
2023-03-17T01:21:00.273Z,26.63
2023-03-17T01:23:24.828Z,25.67
2023-03-17T01:25:50.836Z,25.45
2023-03-17T01:28:19.809Z,26.02
2023-03-17T01:30:45.261Z,28.10
2023-03-17T01:33:11.683Z,26.45
2023-03-17T01:35:38.354Z,24.55
2023-03-17T01:38:03.627Z,26.02
2023-03-17T01:40:32.359Z,24.58
2023-03-17T01:43:04.413Z,25.75
2023-03-17T01:46:06.774Z,25.98
2023-03-17T01:48:36.184Z,27.75
2023-03-17T01:51:00.822Z,25.65
2023-03-17T01:53:25.943Z,24.13
2023-03-17T01:55:52.692Z,25.42
2023-03-17T01:58:19.123Z,28.05
2023-03-17T02:00:46.580Z,25.02
2023-03-17T02:03:11.737Z,28.05
2023-03-17T02:05:39.673Z,26.42
2023-03-17T02:08:10.185Z,27.98
2023-03-17T02:10:34.541Z,27.80
2023-03-17T02:13:04.486Z,27.60
2023-03-17T02:15:39.228Z,31.75
2023-03-17T02:18:03.961Z,24.45
2023-03-17T02:21:14.391Z,30.30
2023-03-17T02:23:48.048Z,24.75
2023-03-17T02:26:13.877Z,30.63
2023-03-17T02:28:39.705Z,28.95
2023-03-17T02:31:04.743Z,24.88
2023-03-17T02:33:29.213Z,29.40
2023-03-17T02:35:53.649Z,26.30
2023-03-17T02:38:20.211Z,24.83
2023-03-17T02:40:46.350Z,27.45
2023-03-17T02:43:10.804Z,30.77
2023-03-17T02:45:35.224Z,27.23
2023-03-17T02:48:00.665Z,25.75
2023-03-17T02:50:28.113Z,23.50
2023-03-17T02:52:52.991Z,26.63
2023-03-17T02:55:17.898Z,23.58
2023-03-17T02:57:43.920Z,28.92
2023-03-17T03:00:10.554Z,22.10
2023-03-17T03:02:49.161Z,24.38
2023-03-17T03:05:15.854Z,24.75
2023-03-17T03:07:40.291Z,23.63
2023-03-17T03:10:05.559Z,24.38
2023-03-17T03:12:30.519Z,26.65
2023-03-17T03:14:56.264Z,25.88
2023-03-17T03:17:21.991Z,21.90
2023-03-17T03:19:58.013Z,26.02
2023-03-17T03:22:22.504Z,23.17
2023-03-17T03:24:47.012Z,25.17
2023-03-17T03:27:11.674Z,21.58
2023-03-17T03:29:36.471Z,25.33
2023-03-17T03:32:02.422Z,23.98
2023-03-17T03:34:27.881Z,24.70
2023-03-17T03:36:52.399Z,24.40
2023-03-17T03:39:16.765Z,28.02
2023-03-17T03:41:41.284Z,25.63
2023-03-17T03:44:05.782Z,26.00
2023-03-17T03:46:30.574Z,25.67
2023-03-17T03:48:56.789Z,22.88
2023-03-17T03:51:21.404Z,23.10
2023-03-17T03:53:45.817Z,24.85
2023-03-17T03:56:10.445Z,23.85
2023-03-17T03:58:34.849Z,22.67
2023-03-17T04:00:59.248Z,25.77
2023-03-17T04:03:23.792Z,23.35
2023-03-17T04:05:49.638Z,23.52
2023-03-17T04:08:14.044Z,23.65
2023-03-17T04:10:38.548Z,25.75
2023-03-17T04:13:03.546Z,29.60
2023-03-17T04:15:28.038Z,25.65
2023-03-17T04:17:55.014Z,25.65
2023-03-17T04:20:20.577Z,23.02
2023-03-17T04:22:46.683Z,22.88
2023-03-17T04:25:13.604Z,25.08
2023-03-17T04:27:38.161Z,27.58
2023-03-17T04:30:02.735Z,29.35
2023-03-17T04:32:28.063Z,33.47
2023-03-17T04:34:52.479Z,25.13
2023-03-17T04:37:16.880Z,24.52
2023-03-17T04:39:42.704Z,26.30
2023-03-17T04:42:07.946Z,28.52
2023-03-17T04:44:32.329Z,27.65
2023-03-17T04:46:56.753Z,22.88
2023-03-17T04:49:23.674Z,19.58
2023-03-17T04:51:48.393Z,18.17
2023-03-17T04:54:13.174Z,24.20
2023-03-17T04:56:39.188Z,20.73
2023-03-17T04:59:04.147Z,20.13
2023-03-17T05:01:28.917Z,17.42
2023-03-17T05:03:53.420Z,19.73
2023-03-17T05:06:18.126Z,17.70
2023-03-17T05:08:44.936Z,20.20
2023-03-17T05:11:10.431Z,19.50
2023-03-17T05:13:36.282Z,20.00
2023-03-17T05:16:01.563Z,17.17
2023-03-17T05:18:27.331Z,19.17
2023-03-17T05:20:51.884Z,18.17
2023-03-17T05:23:16.844Z,19.40
2023-03-17T05:25:41.789Z,17.02
2023-03-17T05:28:07.126Z,15.68
2023-03-17T05:30:34.657Z,18.42
2023-03-17T05:33:04.524Z,16.63
2023-03-17T05:35:29.164Z,15.93
2023-03-17T05:37:53.760Z,20.08
2023-03-17T05:40:18.528Z,17.35
2023-03-17T05:42:43.100Z,20.55
2023-03-17T05:45:08.817Z,15.25
2023-03-17T05:47:35.161Z,15.73
2023-03-17T05:49:59.588Z,14.88
2023-03-17T05:52:24.127Z,16.30
2023-03-17T05:54:49.178Z,14.00
2023-03-17T05:57:15.470Z,17.23
2023-03-17T05:59:40.177Z,15.07
2023-03-17T06:02:04.717Z,14.93
2023-03-17T06:04:30.912Z,14.10
2023-03-17T06:06:55.382Z,15.43
2023-03-17T06:09:19.953Z,13.85
2023-03-17T06:11:45.081Z,15.32
2023-03-17T06:14:09.495Z,16.27
2023-03-17T06:16:34.269Z,14.63
2023-03-17T06:18:58.671Z,13.13
2023-03-17T06:21:24.672Z,13.75
2023-03-17T06:23:49.068Z,16.58
2023-03-17T06:26:13.628Z,15.30
2023-03-17T06:28:38.049Z,10.00
2023-03-17T06:31:04.700Z,13.63
2023-03-17T06:33:31.620Z,13.70
2023-03-17T06:35:56.392Z,14.00
2023-03-17T06:38:22.290Z,12.65
2023-03-17T06:40:46.926Z,9.60
2023-03-17T06:43:11.551Z,12.98
2023-03-17T06:45:37.462Z,6.40
2023-03-17T06:48:02.393Z,8.23
2023-03-17T06:50:27.146Z,9.90
2023-03-17T06:52:52.147Z,7.65
2023-03-17T06:55:18.487Z,7.93
2023-03-17T06:57:43.241Z,9.82
2023-03-17T07:00:09.383Z,8.45
2023-03-17T07:02:33.893Z,8.18
2023-03-17T07:04:59.285Z,9.43
2023-03-17T07:07:25.028Z,13.27
2023-03-17T07:09:50.140Z,15.65
2023-03-17T07:12:18.905Z,15.02
2023-03-17T07:14:43.501Z,21.63
2023-03-17T07:17:08.459Z,13.27
2023-03-17T07:19:33.251Z,13.50
2023-03-17T07:22:00.669Z,16.42
2023-03-17T07:24:25.561Z,12.07
2023-03-17T07:26:50.374Z,12.30
2023-03-17T07:29:16.642Z,14.38
2023-03-17T07:31:41.503Z,16.55
2023-03-17T07:34:06.756Z,16.10
2023-03-17T07:36:31.519Z,15.48
2023-03-17T07:38:56.690Z,14.38
2023-03-17T07:41:22.497Z,17.35
2023-03-17T07:43:47.184Z,16.08
2023-03-17T07:46:13.978Z,17.60
2023-03-17T07:48:42.305Z,18.02
2023-03-17T07:51:07.466Z,18.00
2023-03-17T07:53:32.019Z,16.30
2023-03-17T07:55:56.460Z,14.27
2023-03-17T07:58:21.998Z,13.40
2023-03-17T08:00:46.709Z,15.57
2023-03-17T08:03:12.792Z,12.30
2023-03-17T08:05:37.804Z,13.05
2023-03-17T08:08:02.359Z,14.65
2023-03-17T08:10:27.410Z,17.45
2023-03-17T08:12:53.446Z,17.13
2023-03-17T08:15:17.942Z,12.73
2023-03-17T08:17:42.522Z,14.82
2023-03-17T08:20:10.117Z,12.35
2023-03-17T08:22:34.478Z,12.90
2023-03-17T08:24:58.982Z,12.43
2023-03-17T08:27:23.842Z,11.55
2023-03-17T08:29:49.907Z,14.00
2023-03-17T08:32:15.116Z,14.52
2023-03-17T08:34:40.043Z,19.52
2023-03-17T08:37:10.069Z,14.15
2023-03-17T08:39:36.362Z,16.10
2023-03-17T08:42:00.855Z,10.20
2023-03-17T08:44:25.506Z,12.65
2023-03-17T08:46:50.340Z,14.18
2023-03-17T08:49:14.761Z,11.50
2023-03-17T08:51:40.101Z,12.63
2023-03-17T08:54:07.761Z,11.13
2023-03-17T08:56:32.205Z,13.05
2023-03-17T08:58:57.073Z,11.32
2023-03-17T09:01:24.883Z,8.73
2023-03-17T09:03:50.209Z,8.60
2023-03-17T09:06:15.749Z,7.45
2023-03-17T09:08:44.867Z,8.00
2023-03-17T09:11:13.046Z,5.38
2023-03-17T09:13:39.135Z,10.48
2023-03-17T09:16:04.043Z,9.35
2023-03-17T09:18:28.795Z,8.00
2023-03-17T09:20:53.465Z,8.75
2023-03-17T09:23:17.973Z,6.95
2023-03-17T09:25:42.984Z,8.65
2023-03-17T09:28:12.485Z,7.30
2023-03-17T09:30:37.470Z,9.70
2023-03-17T09:33:01.928Z,5.97
2023-03-17T09:35:28.150Z,7.38
2023-03-17T09:37:52.769Z,8.23
2023-03-17T09:40:20.394Z,5.82
2023-03-17T09:42:58.256Z,6.70
2023-03-17T09:45:34.486Z,9.05
2023-03-17T09:48:32.307Z,9.10
2023-03-17T09:51:00.121Z,11.63
2023-03-17T09:53:28.434Z,20.25
2023-03-17T09:55:56.965Z,9.18
2023-03-17T09:58:25.597Z,4.53
2023-03-17T10:00:51.919Z,10.60
2023-03-17T10:03:17.703Z,9.02
2023-03-17T10:05:42.278Z,5.78
2023-03-17T10:08:29.345Z,7.65
2023-03-17T10:10:59.629Z,5.90
2023-03-17T10:13:33.597Z,6.17
2023-03-17T10:16:04.745Z,6.93
2023-03-17T10:18:34.124Z,8.95
2023-03-17T10:21:02.216Z,10.75
2023-03-17T10:23:30.973Z,9.10
2023-03-17T10:25:58.767Z,6.28
2023-03-17T10:28:29.710Z,7.68
2023-03-17T10:30:55.048Z,7.28
2023-03-17T10:33:24.065Z,6.57
2023-03-17T10:35:48.622Z,13.85
2023-03-17T10:38:18.523Z,7.65
2023-03-17T10:40:45.566Z,7.93
2023-03-17T10:43:20.657Z,6.43
2023-03-17T10:45:56.472Z,9.98
2023-03-17T10:48:22.340Z,5.72
2023-03-17T10:50:49.561Z,7.05
2023-03-17T10:53:28.212Z,4.68
2023-03-17T10:55:58.855Z,9.13
2023-03-17T10:58:33.125Z,10.00
2023-03-17T11:01:00.134Z,6.30
2023-03-17T11:03:30.030Z,8.07
2023-03-17T11:06:01.690Z,6.03
2023-03-17T11:08:26.239Z,7.00
2023-03-17T11:10:56.940Z,7.00
2023-03-17T11:13:21.495Z,6.03
2023-03-17T11:15:53.258Z,7.32
2023-03-17T11:18:22.883Z,6.13
2023-03-17T11:20:57.600Z,7.65
2023-03-17T11:23:38.985Z,5.25
2023-03-17T11:26:17.591Z,7.75
2023-03-17T11:28:49.379Z,7.07
2023-03-17T11:31:19.364Z,5.88
2023-03-17T11:36:20.488Z,5.82
2023-03-17T11:38:56.082Z,7.88
2023-03-17T11:41:41.370Z,6.15
2023-03-17T11:44:47.730Z,7.05
2023-03-17T11:47:21.045Z,6.63
2023-03-17T11:49:52.778Z,4.70
2023-03-17T11:52:27.046Z,7.72
2023-03-17T11:55:00.069Z,7.88
2023-03-17T11:57:28.377Z,6.30
2023-03-17T11:59:57.058Z,7.30
2023-03-17T12:02:29.604Z,9.80
2023-03-17T12:04:57.350Z,5.63
2023-03-17T12:07:26.310Z,7.22
2023-03-17T12:09:59.853Z,7.63
2023-03-17T12:12:31.494Z,11.20
2023-03-17T12:15:00.472Z,7.70
2023-03-17T12:17:30.389Z,7.25
2023-03-17T12:22:38.029Z,8.38
2023-03-17T12:25:12.571Z,5.80
2023-03-17T12:27:43.987Z,7.32
2023-03-17T12:30:19.014Z,12.50
2023-03-17T12:32:50.340Z,8.52
2023-03-17T12:35:27.877Z,6.50
2023-03-17T12:37:54.691Z,9.75
2023-03-17T12:40:25.212Z,6.22
2023-03-17T12:43:02.143Z,5.50
2023-03-17T12:45:56.095Z,9.45
2023-03-17T12:48:58.144Z,8.50
2023-03-17T12:51:53.123Z,10.13
2023-03-17T12:54:26.649Z,13.85
2023-03-17T12:56:51.570Z,9.32
2023-03-17T12:59:19.671Z,10.88
2023-03-17T13:01:46.632Z,12.98
2023-03-17T13:04:26.499Z,12.15
2023-03-17T13:07:00.182Z,10.43
2023-03-17T13:09:45.535Z,10.13
2023-03-17T13:13:06.045Z,8.27
2023-03-17T13:15:55.749Z,63.67
2023-03-17T13:18:49.916Z,14.70
2023-03-17T13:21:16.369Z,12.73
2023-03-17T13:23:44.268Z,11.85
2023-03-17T13:26:13.997Z,12.23
2023-03-17T13:28:49.464Z,15.40
2023-03-17T13:31:32.052Z,9.52
2023-03-17T13:33:58.573Z,13.05
2023-03-17T13:36:29.776Z,11.10
2023-03-17T13:39:28.522Z,9.57
2023-03-17T13:42:17.617Z,14.00
2023-03-17T13:44:58.077Z,14.18
2023-03-17T13:47:34.885Z,15.60
2023-03-17T13:50:04.230Z,15.77
2023-03-17T13:55:05.442Z,14.60
2023-03-17T13:57:37.227Z,11.93
2023-03-17T14:00:17.624Z,14.75
2023-03-17T14:02:43.416Z,10.00
2023-03-17T14:05:10.149Z,11.38
2023-03-17T14:07:44.921Z,16.88
2023-03-17T14:10:17.583Z,11.25
2023-03-17T14:12:51.301Z,11.85
2023-03-17T14:15:23.345Z,9.60
2023-03-17T14:17:52.713Z,11.88
2023-03-17T14:20:23.821Z,12.65
2023-03-17T14:22:53.943Z,11.05
2023-03-17T14:25:20.903Z,12.50
2023-03-17T14:27:49.239Z,13.02
2023-03-17T14:30:20.589Z,12.77
2023-03-17T14:32:49.058Z,12.88
2023-03-17T14:35:14.657Z,11.80
2023-03-17T14:37:39.467Z,12.77
2023-03-17T14:40:04.000Z,13.80
2023-03-17T14:42:32.843Z,11.18
2023-03-17T14:45:07.769Z,9.07
2023-03-17T14:47:38.458Z,11.35
2023-03-17T14:50:03.327Z,11.50
2023-03-17T14:52:29.954Z,12.73
2023-03-17T14:54:56.430Z,10.85
2023-03-17T14:57:23.832Z,9.07
2023-03-17T14:59:58.200Z,10.30
2023-03-17T15:02:29.069Z,10.30
2023-03-17T15:04:56.026Z,11.25
2023-03-17T15:07:32.298Z,15.68
2023-03-17T15:10:02.006Z,11.52
2023-03-17T15:12:30.321Z,12.30
2023-03-17T15:14:59.038Z,21.13
2023-03-17T15:17:30.872Z,9.38
2023-03-17T15:19:59.579Z,13.52
2023-03-17T15:22:26.779Z,10.48
2023-03-17T15:25:00.192Z,15.27
2023-03-17T15:27:24.723Z,13.98
2023-03-17T15:29:49.299Z,20.05
2023-03-17T15:32:15.841Z,13.40
2023-03-17T15:34:42.004Z,14.18
2023-03-17T15:37:15.053Z,10.27
2023-03-17T15:39:39.577Z,14.65
2023-03-17T15:42:04.096Z,13.63
2023-03-17T15:44:30.094Z,17.27
2023-03-17T15:46:54.590Z,15.68
2023-03-17T15:49:19.052Z,14.27
2023-03-17T15:51:44.889Z,15.85
2023-03-17T15:54:15.343Z,18.52
2023-03-17T15:56:39.945Z,18.08
2023-03-17T15:59:04.751Z,19.67
2023-03-17T16:01:29.704Z,17.48
2023-03-17T16:03:54.602Z,19.42
2023-03-17T16:06:21.493Z,15.35
2023-03-17T16:08:47.717Z,19.70
2023-03-17T16:11:20.067Z,15.98
2023-03-17T16:13:44.801Z,14.80
2023-03-17T16:16:22.759Z,20.90
2023-03-17T16:18:48.153Z,19.60
2023-03-17T16:21:13.469Z,19.02
2023-03-17T16:23:38.250Z,21.17
2023-03-17T16:26:14.245Z,17.25
2023-03-17T16:28:39.916Z,17.55
2023-03-17T16:31:16.143Z,23.90
2023-03-17T16:33:42.026Z,18.20
2023-03-17T16:36:07.134Z,20.60
2023-03-17T16:38:34.533Z,20.85
2023-03-17T16:41:02.191Z,22.88
2023-03-17T16:43:30.115Z,21.15
2023-03-17T16:45:56.218Z,22.85
2023-03-17T16:48:20.841Z,26.17
2023-03-17T16:50:46.056Z,22.88
2023-03-17T16:53:11.133Z,21.05
2023-03-17T16:55:36.494Z,27.23
2023-03-17T16:58:06.565Z,24.20
2023-03-17T17:02:59.529Z,24.85
2023-03-17T17:05:27.364Z,25.30
2023-03-17T17:07:55.691Z,27.63
2023-03-17T17:10:22.282Z,25.67
2023-03-17T17:12:47.461Z,29.02
2023-03-17T17:15:14.273Z,30.98
2023-03-17T17:17:42.213Z,30.90
2023-03-17T17:20:13.659Z,28.42
2023-03-17T17:22:38.262Z,32.35
2023-03-17T17:25:04.811Z,30.70
2023-03-17T17:27:32.357Z,37.08
2023-03-17T17:29:56.846Z,35.05
2023-03-17T17:32:23.692Z,33.03
2023-03-17T17:34:49.731Z,36.65
2023-03-17T17:37:14.433Z,33.90
2023-03-17T17:39:38.915Z,32.78
2023-03-17T17:42:03.622Z,34.78
2023-03-17T17:44:28.158Z,32.25
2023-03-17T17:46:52.654Z,34.63
2023-03-17T17:49:17.061Z,40.85
2023-03-17T17:51:45.888Z,32.58
2023-03-17T17:54:10.403Z,37.67
2023-03-17T17:56:38.226Z,35.08
2023-03-17T17:59:02.679Z,27.20
2023-03-17T18:01:27.216Z,35.58
2023-03-17T18:03:51.691Z,35.50
2023-03-17T18:06:17.482Z,28.65
2023-03-17T18:08:43.615Z,33.08
2023-03-17T18:11:08.869Z,35.13
2023-03-17T18:13:34.456Z,32.15
2023-03-17T18:15:58.974Z,38.70
2023-03-17T18:18:25.901Z,38.63
2023-03-17T18:20:50.952Z,36.45
2023-03-17T18:23:17.701Z,36.30
2023-03-17T18:25:43.648Z,25.77
2023-03-17T18:28:08.531Z,31.00
2023-03-17T18:30:35.153Z,31.20
2023-03-17T18:33:14.287Z,29.00
2023-03-17T18:35:39.382Z,31.17
2023-03-17T18:38:03.882Z,26.73
2023-03-17T18:40:28.341Z,26.40
2023-03-17T18:42:58.300Z,39.03
2023-03-17T18:45:23.763Z,31.20
2023-03-17T18:47:53.340Z,34.92
2023-03-17T18:50:18.819Z,31.10
2023-03-17T18:52:45.010Z,30.27
2023-03-17T18:55:11.261Z,35.42
2023-03-17T18:57:37.222Z,42.60
2023-03-17T19:00:05.337Z,31.05
2023-03-17T19:02:29.948Z,35.00
2023-03-17T19:04:54.617Z,31.08
2023-03-17T19:07:19.204Z,24.42
2023-03-17T19:09:43.793Z,29.90
2023-03-17T19:12:09.911Z,25.77
2023-03-17T19:14:38.590Z,19.83
2023-03-17T19:17:04.863Z,16.55
2023-03-17T19:19:29.648Z,19.30
2023-03-17T19:21:55.542Z,20.75
2023-03-17T19:24:19.975Z,15.02
2023-03-17T19:26:44.376Z,14.60
2023-03-17T19:29:09.883Z,13.98
2023-03-17T19:31:35.144Z,17.92
2023-03-17T19:34:01.966Z,17.90
2023-03-17T19:36:26.469Z,10.65
2023-03-17T19:38:51.223Z,12.88
2023-03-17T19:41:16.528Z,9.88
2023-03-17T19:43:41.848Z,11.38
2023-03-17T19:46:09.569Z,11.88
2023-03-17T19:48:34.551Z,8.32
2023-03-17T19:51:03.342Z,22.38
2023-03-17T19:53:27.956Z,12.05
2023-03-17T19:55:52.427Z,10.20
2023-03-17T19:58:18.739Z,14.32
2023-03-17T20:00:43.616Z,14.88
2023-03-17T20:03:12.684Z,12.45
2023-03-17T20:05:37.078Z,10.45
2023-03-17T20:08:03.056Z,10.75
2023-03-17T20:10:27.711Z,7.47
2023-03-17T20:12:52.297Z,5.25
2023-03-17T20:15:17.459Z,8.95
2023-03-17T20:17:41.951Z,10.68
2023-03-17T20:20:09.307Z,7.07
2023-03-17T20:22:33.783Z,9.00
2023-03-17T20:24:59.643Z,13.07
2023-03-17T20:27:24.744Z,9.10
2023-03-17T20:29:49.305Z,11.00
2023-03-17T20:32:14.974Z,8.90
2023-03-17T20:34:39.390Z,8.57
2023-03-17T20:37:04.693Z,9.25
2023-03-17T20:39:29.599Z,15.13
2023-03-17T20:41:55.626Z,8.00
2023-03-17T20:44:21.149Z,9.23
2023-03-17T20:46:46.215Z,12.57
2023-03-17T20:49:12.107Z,8.20
2023-03-17T20:51:37.849Z,9.55
2023-03-17T20:54:06.206Z,13.50
2023-03-17T20:56:31.139Z,9.52
2023-03-17T20:58:58.572Z,12.27
2023-03-17T21:01:23.657Z,10.18
2023-03-17T21:03:48.643Z,9.43
2023-03-17T21:06:13.389Z,8.77
2023-03-17T21:08:38.757Z,11.40
2023-03-17T21:11:09.329Z,13.15
2023-03-17T21:13:34.425Z,10.55
2023-03-17T21:16:01.573Z,9.48
2023-03-17T21:18:26.221Z,9.35
2023-03-17T21:20:51.911Z,9.90
2023-03-17T21:23:16.444Z,10.02
2023-03-17T21:25:41.055Z,10.10
2023-03-17T21:28:06.307Z,7.95
2023-03-17T21:30:31.110Z,10.60
2023-03-17T21:32:57.174Z,12.13
2023-03-17T21:35:21.960Z,9.10
2023-03-17T21:37:49.458Z,10.20
2023-03-17T21:40:15.727Z,14.65
2023-03-17T21:42:40.760Z,11.88
2023-03-17T21:45:05.888Z,13.27
2023-03-17T21:47:33.401Z,15.90
2023-03-17T21:49:59.257Z,7.28
2023-03-17T21:52:23.975Z,11.93
2023-03-17T21:54:49.010Z,10.35
2023-03-17T21:57:13.489Z,11.65
2023-03-17T21:59:38.692Z,7.95
2023-03-17T22:02:03.727Z,6.70
2023-03-17T22:04:28.804Z,9.45
2023-03-17T22:06:57.216Z,8.38
2023-03-17T22:09:21.910Z,7.95
2023-03-17T22:11:46.406Z,9.27
2023-03-17T22:14:13.416Z,8.32
2023-03-17T22:16:38.059Z,6.10
2023-03-17T22:19:02.619Z,7.40
2023-03-17T22:21:28.888Z,7.35
2023-03-17T22:23:54.839Z,5.55
2023-03-17T22:26:21.153Z,8.10
2023-03-17T22:28:46.974Z,7.78
2023-03-17T22:31:15.602Z,8.82
2023-03-17T22:33:40.388Z,6.10
2023-03-17T22:36:05.228Z,5.00
2023-03-17T22:38:30.000Z,7.03
2023-03-17T22:41:08.340Z,7.35
2023-03-17T22:43:33.410Z,9.13
2023-03-17T22:46:00.610Z,8.77
2023-03-17T22:48:32.288Z,9.23
2023-03-17T22:51:02.784Z,4.97
2023-03-17T22:53:27.223Z,15.55
2023-03-17T22:55:51.710Z,7.93
2023-03-17T22:58:17.552Z,11.40
2023-03-17T23:00:42.488Z,20.80
2023-03-17T23:03:07.373Z,17.05
2023-03-17T23:05:31.822Z,35.65
2023-03-17T23:07:56.372Z,12.45
2023-03-17T23:10:39.610Z,13.95
2023-03-17T23:13:05.966Z,10.32
2023-03-17T23:15:32.176Z,9.45
2023-03-17T23:17:59.333Z,7.70
2023-03-17T23:20:24.519Z,8.10
2023-03-17T23:22:49.275Z,9.68
2023-03-17T23:25:17.145Z,10.75
2023-03-17T23:27:41.939Z,10.27
2023-03-17T23:30:07.156Z,10.77
2023-03-17T23:32:34.368Z,9.15
2023-03-17T23:34:58.849Z,6.70
2023-03-17T23:37:23.846Z,8.35
2023-03-17T23:39:48.556Z,9.23
2023-03-17T23:42:13.339Z,10.30
2023-03-17T23:44:37.740Z,7.35
2023-03-17T23:47:03.215Z,12.10
2023-03-17T23:49:29.079Z,13.07
2023-03-17T23:51:53.565Z,9.10
2023-03-17T23:54:18.055Z,10.68
2023-03-17T23:56:42.727Z,6.57
2023-03-17T23:59:09.243Z,6.00
